Time,TemperatureF,DewpointF,PressureIn,WindDirection,WindDirectionDegrees,WindSpeedMPH,WindSpeedGustMPH,Humidity,HourlyPrecipIn,Conditions,Clouds,dailyrainin,SoftwareType,DateUTC
2013-03-06 00:00:00,40.7,38.0,29.69,North,0,1.6,4.0,90,0.00,,,0.00,WUHU216HW,2013-03-06 08:00:00,
2013-03-06 00:05:00,40.7,38.0,29.69,East,90,3.4,4.0,90,0.00,,,0.00,WUHU216HW,2013-03-06 08:05:00,
2013-03-06 00:10:00,40.7,38.0,29.68,NNE,23,2.0,3.4,90,0.00,,,0.00,WUHU216HW,2013-03-06 08:10:00,
2013-03-06 00:15:00,40.7,38.0,29.68,North,0,1.1,4.7,90,0.00,,,0.00,WUHU216HW,2013-03-06 08:15:00,
2013-03-06 00:20:00,40.5,37.8,29.68,East,90,1.6,4.7,90,0.00,,,0.00,WUHU216HW,2013-03-06 08:20:00,
2013-03-06 00:25:00,40.5,37.8,29.68,NE,45,2.9,3.6,90,0.00,,,0.00,WUHU216HW,2013-03-06 08:25:00,
2013-03-06 00:30:00,40.3,37.6,29.67,NE,45,0.7,2.9,90,0.00,,,0.00,WUHU216HW,2013-03-06 08:30:00,
2013-03-06 00:35:00,40.1,37.4,29.67,ENE,68,2.2,4.7,90,0.00,,,0.00,WUHU216HW,2013-03-06 08:35:00,
2013-03-06 00:40:00,40.1,37.4,29.67,NNW,338,1.6,4.7,90,0.00,,,0.00,WUHU216HW,2013-03-06 08:40:00,
2013-03-06 00:45:00,40.0,37.3,29.67,WNW,293,0.4,4.5,90,0.00,,,0.00,WUHU216HW,2013-03-06 08:45:00,
2013-03-06 00:50:00,40.0,37.3,29.66,NW,315,0.0,3.4,90,0.00,,,0.00,WUHU216HW,2013-03-06 08:50:00,
2013-03-06 00:55:00,40.0,37.3,29.66,ENE,68,0.0,2.5,90,0.00,,,0.00,WUHU216HW,2013-03-06 08:55:00,
2013-03-06 01:00:00,39.8,37.1,29.66,NE,45,1.6,4.5,90,0.00,,,0.00,WUHU216HW,2013-03-06 09:00:00,
2013-03-06 01:05:00,39.8,37.1,29.66,East,90,2.5,4.7,90,0.00,,,0.00,WUHU216HW,2013-03-06 09:05:00,
2013-03-06 01:10:00,39.8,37.1,29.66,East,90,1.8,6.7,90,0.00,,,0.00,WUHU216HW,2013-03-06 09:10:00,
2013-03-06 01:15:00,39.8,37.1,29.66,NE,45,2.7,6.7,90,0.00,,,0.00,WUHU216HW,2013-03-06 09:15:00,
2013-03-06 01:20:00,39.8,37.1,29.66,ENE,68,1.6,4.7,90,0.00,,,0.00,WUHU216HW,2013-03-06 09:20:00,
2013-03-06 01:25:00,40.0,37.3,29.65,SW,225,0.9,4.7,90,0.00,,,0.00,WUHU216HW,2013-03-06 09:25:00,
2013-03-06 01:30:00,40.0,37.3,29.65,SSE,158,0.7,3.4,90,0.00,,,0.00,WUHU216HW,2013-03-06 09:30:00,
2013-03-06 01:35:00,39.8,37.1,29.64,NE,45,1.1,4.0,90,0.00,,,0.00,WUHU216HW,2013-03-06 09:35:00,
2013-03-06 01:40:00,39.8,37.1,29.65,NNE,23,1.3,4.0,90,0.00,,,0.00,WUHU216HW,2013-03-06 09:40:00,
2013-03-06 01:45:00,39.8,37.1,29.64,NNE,23,2.9,5.6,90,0.00,,,0.00,WUHU216HW,2013-03-06 09:45:00,
2013-03-06 01:50:00,39.8,37.1,29.64,NE,45,1.8,5.6,90,0.00,,,0.00,WUHU216HW,2013-03-06 09:50:00,
2013-03-06 01:55:00,39.6,36.9,29.64,ENE,68,0.9,4.3,90,0.00,,,0.00,WUHU216HW,2013-03-06 09:55:00,
2013-03-06 02:00:00,39.6,36.9,29.63,NE,45,0.4,4.7,90,0.00,,,0.00,WUHU216HW,2013-03-06 10:00:00,
2013-03-06 02:05:00,39.6,36.9,29.63,East,90,3.1,4.7,90,0.00,,,0.00,WUHU216HW,2013-03-06 10:05:00,
2013-03-06 02:10:00,39.6,36.9,29.63,NE,45,1.8,3.1,90,0.00,,,0.00,WUHU216HW,2013-03-06 10:10:00,
2013-03-06 02:15:00,39.6,36.9,29.62,ENE,68,1.6,3.1,90,0.00,,,0.00,WUHU216HW,2013-03-06 10:15:00,
2013-03-06 02:20:00,39.6,36.9,29.62,NW,315,1.1,2.9,90,0.00,,,0.00,WUHU216HW,2013-03-06 10:20:00,
2013-03-06 02:25:00,39.8,37.1,29.62,NW,315,0.4,2.9,90,0.00,,,0.00,WUHU216HW,2013-03-06 10:25:00,
2013-03-06 02:30:00,39.8,37.1,29.62,NW,315,0.7,3.4,90,0.00,,,0.00,WUHU216HW,2013-03-06 10:30:00,
2013-03-06 02:35:00,39.8,37.1,29.61,WSW,248,0.4,4.0,90,0.00,,,0.00,WUHU216HW,2013-03-06 10:35:00,
2013-03-06 02:40:00,39.8,37.1,29.61,SSE,158,0.7,4.0,90,0.00,,,0.00,WUHU216HW,2013-03-06 10:40:00,
2013-03-06 02:45:00,39.6,36.9,29.61,ENE,68,2.5,2.5,90,0.00,,,0.00,WUHU216HW,2013-03-06 10:45:00,
2013-03-06 02:50:00,39.6,36.9,29.60,NW,315,0.2,3.1,90,0.00,,,0.00,WUHU216HW,2013-03-06 10:50:00,
2013-03-06 02:55:00,39.6,36.9,29.60,WNW,293,1.8,3.1,90,0.00,,,0.00,WUHU216HW,2013-03-06 10:55:00,
2013-03-06 03:00:00,39.6,36.9,29.60,NE,45,1.3,3.8,90,0.00,,,0.00,WUHU216HW,2013-03-06 11:00:00,
2013-03-06 03:05:00,39.4,36.7,29.60,ENE,68,3.4,3.8,90,0.00,,,0.00,WUHU216HW,2013-03-06 11:05:00,
2013-03-06 03:10:00,39.6,36.9,29.60,NNW,338,1.8,3.6,90,0.00,,,0.00,WUHU216HW,2013-03-06 11:10:00,
2013-03-06 03:15:00,39.6,37.2,29.60,WSW,248,1.1,3.6,91,0.00,,,0.00,WUHU216HW,2013-03-06 11:15:00,
2013-03-06 03:20:00,39.6,37.2,29.59,NNW,338,0.4,3.4,91,0.00,,,0.00,WUHU216HW,2013-03-06 11:20:00,
2013-03-06 03:25:00,39.6,37.2,29.59,NE,45,4.3,4.3,91,0.00,,,0.00,WUHU216HW,2013-03-06 11:25:00,
2013-03-06 03:30:00,39.6,36.9,29.59,SE,135,0.2,4.3,90,0.00,,,0.00,WUHU216HW,2013-03-06 11:30:00,
2013-03-06 03:35:00,39.4,36.7,29.59,NW,315,0.2,4.3,90,0.00,,,0.00,WUHU216HW,2013-03-06 11:35:00,
2013-03-06 03:40:00,39.6,37.2,29.59,NNE,23,0.9,3.8,91,0.00,,,0.00,WUHU216HW,2013-03-06 11:40:00,
2013-03-06 03:45:00,39.6,37.2,29.59,NNE,23,1.8,5.6,91,0.00,,,0.00,WUHU216HW,2013-03-06 11:45:00,
2013-03-06 03:50:00,39.8,37.4,29.59,NNE,23,1.8,5.6,91,0.00,,,0.00,WUHU216HW,2013-03-06 11:50:00,
2013-03-06 03:55:00,39.8,37.4,29.58,NNE,23,2.0,5.8,91,0.00,,,0.00,WUHU216HW,2013-03-06 11:55:00,
2013-03-06 04:00:00,40.0,37.5,29.58,NE,45,1.1,5.8,91,0.00,,,0.00,WUHU216HW,2013-03-06 12:00:00,
2013-03-06 04:05:00,40.0,37.5,29.58,NE,45,1.8,3.4,91,0.00,,,0.00,WUHU216HW,2013-03-06 12:05:00,
2013-03-06 04:10:00,40.0,37.3,29.58,ESE,113,0.4,2.5,90,0.00,,,0.00,WUHU216HW,2013-03-06 12:10:00,
2013-03-06 04:15:00,39.8,37.1,29.58,SSE,158,0.7,2.5,90,0.00,,,0.00,WUHU216HW,2013-03-06 12:15:00,
2013-03-06 04:20:00,39.8,37.1,29.58,North,0,1.8,3.6,90,0.00,,,0.00,WUHU216HW,2013-03-06 12:20:00,
2013-03-06 04:25:00,40.0,37.3,29.58,NNE,23,2.9,3.6,90,0.00,,,0.00,WUHU216HW,2013-03-06 12:25:00,
2013-03-06 04:30:00,40.0,37.3,29.57,NE,45,2.9,3.4,90,0.00,,,0.00,WUHU216HW,2013-03-06 12:30:00,
2013-03-06 04:35:00,40.0,37.5,29.57,NW,315,1.6,3.8,91,0.00,,,0.00,WUHU216HW,2013-03-06 12:35:00,
2013-03-06 04:40:00,40.1,37.7,29.57,NW,315,2.7,4.0,91,0.00,,,0.00,WUHU216HW,2013-03-06 12:40:00,
2013-03-06 04:45:00,40.1,37.7,29.57,NNE,23,5.6,6.3,91,0.00,,,0.00,WUHU216HW,2013-03-06 12:45:00,
2013-03-06 04:50:00,40.3,37.9,29.57,North,0,3.1,6.3,91,0.00,,,0.00,WUHU216HW,2013-03-06 12:50:00,
2013-03-06 04:55:00,40.3,37.9,29.57,NW,315,0.2,7.4,91,0.00,,,0.00,WUHU216HW,2013-03-06 12:55:00,
2013-03-06 05:00:00,40.5,38.1,29.56,NE,45,0.9,7.4,91,0.00,,,0.00,WUHU216HW,2013-03-06 13:00:00,
2013-03-06 05:05:00,40.5,38.1,29.56,ESE,113,0.2,4.0,91,0.00,,,0.00,WUHU216HW,2013-03-06 13:05:00,
2013-03-06 05:10:00,40.7,38.0,29.56,NNE,23,0.9,4.5,90,0.00,,,0.00,WUHU216HW,2013-03-06 13:10:00,
2013-03-06 05:15:00,40.7,38.0,29.56,North,0,2.9,4.5,90,0.00,,,0.00,WUHU216HW,2013-03-06 13:15:00,
2013-03-06 05:20:00,40.7,38.3,29.55,NE,45,2.2,6.9,91,0.00,,,0.00,WUHU216HW,2013-03-06 13:20:00,
2013-03-06 05:25:00,40.7,38.0,29.56,NNE,23,3.1,6.9,90,0.00,,,0.00,WUHU216HW,2013-03-06 13:25:00,
2013-03-06 05:30:00,40.7,38.0,29.55,NNE,23,2.5,9.2,90,0.00,,,0.00,WUHU216HW,2013-03-06 13:30:00,
2013-03-06 05:35:00,40.7,38.0,29.55,NNE,23,2.5,9.2,90,0.00,,,0.00,WUHU216HW,2013-03-06 13:35:00,
2013-03-06 05:40:00,40.7,38.0,29.55,NE,45,3.4,4.7,90,0.00,,,0.00,WUHU216HW,2013-03-06 13:40:00,
2013-03-06 05:45:00,40.7,38.3,29.55,NNE,23,1.8,6.3,91,0.00,,,0.00,WUHU216HW,2013-03-06 13:45:00,
2013-03-06 05:50:00,40.7,38.3,29.55,NNE,23,1.8,6.3,91,0.00,,,0.00,WUHU216HW,2013-03-06 13:50:00,
2013-03-06 05:55:00,40.7,38.0,29.55,NE,45,1.3,3.6,90,0.00,,,0.00,WUHU216HW,2013-03-06 13:55:00,
2013-03-06 06:00:00,40.7,38.0,29.55,NNE,23,2.2,5.4,90,0.00,,,0.00,WUHU216HW,2013-03-06 14:00:00,
2013-03-06 06:05:00,40.7,38.0,29.55,NE,45,4.7,6.9,90,0.00,,,0.00,WUHU216HW,2013-03-06 14:05:00,
2013-03-06 06:10:00,40.9,38.2,29.55,NE,45,0.4,6.9,90,0.00,,,0.00,WUHU216HW,2013-03-06 14:10:00,
2013-03-06 06:15:00,41.0,38.3,29.55,NNE,23,2.7,6.3,90,0.00,,,0.00,WUHU216HW,2013-03-06 14:15:00,
2013-03-06 06:20:00,41.0,38.3,29.54,NW,315,3.8,6.3,90,0.00,,,0.00,WUHU216HW,2013-03-06 14:20:00,
2013-03-06 06:25:00,41.0,38.3,29.54,North,0,1.3,6.3,90,0.00,,,0.00,WUHU216HW,2013-03-06 14:25:00,
2013-03-06 06:30:00,41.0,38.3,29.54,NE,45,2.5,6.3,90,0.00,,,0.00,WUHU216HW,2013-03-06 14:30:00,
2013-03-06 06:35:00,41.2,38.5,29.54,North,0,1.8,5.8,90,0.00,,,0.00,WUHU216HW,2013-03-06 14:35:00,
2013-03-06 06:40:00,41.0,38.3,29.54,NE,45,1.6,4.7,90,0.00,,,0.00,WUHU216HW,2013-03-06 14:40:00,
2013-03-06 06:45:00,41.0,38.3,29.54,East,90,1.3,7.4,90,0.00,,,0.00,WUHU216HW,2013-03-06 14:45:00,
2013-03-06 06:50:00,41.2,38.5,29.55,North,0,0.7,7.4,90,0.00,,,0.00,WUHU216HW,2013-03-06 14:50:00,
2013-03-06 06:55:00,41.0,38.3,29.54,ENE,68,1.3,4.0,90,0.00,,,0.00,WUHU216HW,2013-03-06 14:55:00,
2013-03-06 07:00:00,41.2,38.5,29.55,NE,45,6.0,6.0,90,0.00,,,0.00,WUHU216HW,2013-03-06 15:00:00,
2013-03-06 07:05:00,41.2,38.5,29.55,North,0,1.8,6.0,90,0.00,,,0.00,WUHU216HW,2013-03-06 15:05:00,
2013-03-06 07:10:00,41.2,38.5,29.55,WNW,293,0.9,8.1,90,0.00,,,0.00,WUHU216HW,2013-03-06 15:10:00,
2013-03-06 07:15:00,41.4,38.7,29.54,North,0,1.1,8.1,90,0.00,,,0.00,WUHU216HW,2013-03-06 15:15:00,
2013-03-06 07:20:00,41.4,38.7,29.54,NNW,338,5.4,7.2,90,0.00,,,0.00,WUHU216HW,2013-03-06 15:20:00,
2013-03-06 07:25:00,41.4,38.7,29.55,NNE,23,1.1,5.4,90,0.00,,,0.00,WUHU216HW,2013-03-06 15:25:00,
2013-03-06 07:30:00,41.4,38.7,29.55,NNE,23,1.8,5.4,90,0.00,,,0.00,WUHU216HW,2013-03-06 15:30:00,
2013-03-06 07:35:00,41.6,38.6,29.55,WNW,293,4.7,4.7,89,0.00,,,0.00,WUHU216HW,2013-03-06 15:35:00,
2013-03-06 07:40:00,41.6,38.6,29.55,ENE,68,0.4,6.9,89,0.00,,,0.00,WUHU216HW,2013-03-06 15:40:00,
2013-03-06 07:45:00,41.8,38.8,29.55,SSW,203,1.8,6.9,89,0.00,,,0.00,WUHU216HW,2013-03-06 15:45:00,
2013-03-06 07:50:00,41.8,38.8,29.55,ENE,68,4.7,5.4,89,0.00,,,0.00,WUHU216HW,2013-03-06 15:50:00,
2013-03-06 07:55:00,41.8,38.8,29.55,North,0,1.1,4.7,89,0.00,,,0.00,WUHU216HW,2013-03-06 15:55:00,
2013-03-06 08:00:00,41.8,38.8,29.56,North,0,2.5,6.9,89,0.00,,,0.00,WUHU216HW,2013-03-06 16:00:00,
2013-03-06 08:05:00,41.9,39.0,29.56,NNE,23,1.8,6.9,89,0.00,,,0.00,WUHU216HW,2013-03-06 16:05:00,
2013-03-06 08:10:00,41.9,39.0,29.56,NNE,23,6.3,6.5,89,0.00,,,0.00,WUHU216HW,2013-03-06 16:10:00,
2013-03-06 08:15:00,41.9,39.0,29.56,North,0,3.1,6.3,89,0.00,,,0.00,WUHU216HW,2013-03-06 16:15:00,
2013-03-06 08:20:00,41.9,39.0,29.56,South,180,0.7,6.3,89,0.00,,,0.00,WUHU216HW,2013-03-06 16:20:00,
2013-03-06 08:25:00,41.9,39.0,29.56,West,270,2.5,4.7,89,0.00,,,0.00,WUHU216HW,2013-03-06 16:25:00,
2013-03-06 08:30:00,42.1,39.2,29.56,NNE,23,3.4,6.0,89,0.00,,,0.00,WUHU216HW,2013-03-06 16:30:00,
2013-03-06 08:35:00,42.1,39.2,29.56,NNW,338,0.2,6.0,89,0.00,,,0.00,WUHU216HW,2013-03-06 16:35:00,
2013-03-06 08:40:00,42.1,39.2,29.57,NNE,23,2.7,2.9,89,0.00,,,0.00,WUHU216HW,2013-03-06 16:40:00,
2013-03-06 08:45:00,42.1,39.2,29.57,NNW,338,1.6,3.6,89,0.00,,,0.00,WUHU216HW,2013-03-06 16:45:00,
2013-03-06 08:50:00,42.3,39.3,29.57,East,90,0.4,3.6,89,0.00,,,0.00,WUHU216HW,2013-03-06 16:50:00,
2013-03-06 08:55:00,42.5,39.2,29.57,NNW,338,0.0,4.7,88,0.01,,,0.01,WUHU216HW,2013-03-06 16:55:00,
2013-03-06 09:00:00,42.5,39.5,29.57,North,0,1.6,4.7,89,0.01,,,0.01,WUHU216HW,2013-03-06 17:00:00,
2013-03-06 09:05:00,42.5,39.5,29.57,NE,45,1.1,4.7,89,0.01,,,0.01,WUHU216HW,2013-03-06 17:05:00,
2013-03-06 09:10:00,42.7,39.3,29.57,NW,315,0.4,4.0,88,0.01,,,0.01,WUHU216HW,2013-03-06 17:10:00,
2013-03-06 09:15:00,42.7,39.7,29.57,North,0,0.0,4.0,89,0.01,,,0.01,WUHU216HW,2013-03-06 17:15:00,
2013-03-06 09:20:00,42.5,39.5,29.57,ENE,68,1.3,4.3,89,0.01,,,0.01,WUHU216HW,2013-03-06 17:20:00,
2013-03-06 09:25:00,42.7,39.7,29.57,North,0,1.1,4.3,89,0.01,,,0.01,WUHU216HW,2013-03-06 17:25:00,
2013-03-06 09:30:00,42.7,39.7,29.57,NNW,338,1.8,3.4,89,0.01,,,0.01,WUHU216HW,2013-03-06 17:30:00,
2013-03-06 09:35:00,42.7,39.7,29.57,SSE,158,0.2,3.4,89,0.01,,,0.01,WUHU216HW,2013-03-06 17:35:00,
2013-03-06 09:40:00,42.7,39.7,29.57,East,90,0.4,3.4,89,0.01,,,0.01,WUHU216HW,2013-03-06 17:40:00,
2013-03-06 09:45:00,42.8,39.9,29.57,West,270,0.4,2.0,89,0.01,,,0.01,WUHU216HW,2013-03-06 17:45:00,
2013-03-06 09:50:00,42.8,39.9,29.58,ESE,113,0.7,1.8,89,0.01,,,0.01,WUHU216HW,2013-03-06 17:50:00,
2013-03-06 09:55:00,42.8,39.9,29.58,East,90,0.0,2.2,89,0.00,,,0.01,WUHU216HW,2013-03-06 17:55:00,
2013-03-06 10:00:00,42.8,39.9,29.58,NW,315,0.7,2.2,89,0.02,,,0.03,WUHU216HW,2013-03-06 18:00:00,
2013-03-06 10:05:00,42.8,39.9,29.58,WNW,293,0.7,2.2,89,0.02,,,0.03,WUHU216HW,2013-03-06 18:05:00,
2013-03-06 10:10:00,42.8,39.9,29.58,NNW,338,0.7,2.9,89,0.02,,,0.03,WUHU216HW,2013-03-06 18:10:00,
2013-03-06 10:15:00,42.8,39.9,29.58,NNE,23,0.2,3.4,89,0.02,,,0.03,WUHU216HW,2013-03-06 18:15:00,
2013-03-06 10:20:00,42.8,39.9,29.58,NE,45,0.9,3.4,89,0.02,,,0.03,WUHU216HW,2013-03-06 18:20:00,
2013-03-06 10:25:00,43.0,40.1,29.58,NNE,23,3.8,3.8,89,0.02,,,0.03,WUHU216HW,2013-03-06 18:25:00,
2013-03-06 10:30:00,43.2,40.5,29.58,SW,225,0.0,3.8,90,0.02,,,0.03,WUHU216HW,2013-03-06 18:30:00,
2013-03-06 10:35:00,43.2,40.5,29.58,North,0,0.2,3.1,90,0.02,,,0.03,WUHU216HW,2013-03-06 18:35:00,
2013-03-06 10:40:00,43.4,40.7,29.58,North,0,2.7,4.7,90,0.02,,,0.03,WUHU216HW,2013-03-06 18:40:00,
2013-03-06 10:45:00,43.7,41.0,29.59,NE,45,1.1,4.7,90,0.02,,,0.03,WUHU216HW,2013-03-06 18:45:00,
2013-03-06 10:50:00,43.7,41.0,29.59,NNE,23,0.2,2.7,90,0.02,,,0.03,WUHU216HW,2013-03-06 18:50:00,
2013-03-06 10:55:00,43.9,41.2,29.59,NNE,23,2.2,4.7,90,0.02,,,0.03,WUHU216HW,2013-03-06 18:55:00,
2013-03-06 11:00:00,44.1,41.4,29.59,NNE,23,0.4,4.7,90,0.00,,,0.03,WUHU216HW,2013-03-06 19:00:00,
2013-03-06 11:05:00,44.3,41.6,29.59,East,90,1.3,3.4,90,0.00,,,0.03,WUHU216HW,2013-03-06 19:05:00,
2013-03-06 11:10:00,44.3,41.6,29.60,NNW,338,2.2,5.1,90,0.00,,,0.03,WUHU216HW,2013-03-06 19:10:00,
2013-03-06 11:15:00,44.3,41.6,29.60,North,0,1.6,8.5,90,0.00,,,0.03,WUHU216HW,2013-03-06 19:15:00,
2013-03-06 11:20:00,44.1,41.4,29.60,SW,225,2.2,8.5,90,0.00,,,0.03,WUHU216HW,2013-03-06 19:20:00,
2013-03-06 11:25:00,44.1,41.4,29.60,North,0,1.8,6.3,90,0.00,,,0.03,WUHU216HW,2013-03-06 19:25:00,
2013-03-06 11:30:00,43.9,41.2,29.60,North,0,3.4,4.0,90,0.01,,,0.04,WUHU216HW,2013-03-06 19:30:00,
2013-03-06 11:35:00,43.9,41.2,29.60,NE,45,3.6,4.9,90,0.01,,,0.04,WUHU216HW,2013-03-06 19:35:00,
2013-03-06 11:40:00,43.9,41.2,29.61,North,0,1.3,5.6,90,0.01,,,0.04,WUHU216HW,2013-03-06 19:40:00,
2013-03-06 11:45:00,44.1,41.4,29.61,ENE,68,2.2,5.6,90,0.01,,,0.04,WUHU216HW,2013-03-06 19:45:00,
2013-03-06 11:50:00,44.1,41.4,29.61,NE,45,1.1,5.4,90,0.01,,,0.04,WUHU216HW,2013-03-06 19:50:00,
2013-03-06 11:55:00,44.3,41.6,29.61,ENE,68,2.9,5.4,90,0.01,,,0.04,WUHU216HW,2013-03-06 19:55:00,
2013-03-06 12:00:00,44.3,41.6,29.61,NE,45,1.1,5.1,90,0.01,,,0.04,WUHU216HW,2013-03-06 20:00:00,
2013-03-06 12:05:00,44.3,41.6,29.61,East,90,1.1,5.1,90,0.01,,,0.04,WUHU216HW,2013-03-06 20:05:00,
2013-03-06 12:10:00,44.1,41.4,29.62,NE,45,3.4,3.4,90,0.01,,,0.04,WUHU216HW,2013-03-06 20:10:00,
2013-03-06 12:15:00,44.3,41.6,29.62,ENE,68,2.7,3.4,90,0.01,,,0.04,WUHU216HW,2013-03-06 20:15:00,
2013-03-06 12:20:00,44.1,41.4,29.62,NW,315,0.7,3.4,90,0.01,,,0.04,WUHU216HW,2013-03-06 20:20:00,
2013-03-06 12:25:00,44.1,41.4,29.62,East,90,1.1,3.4,90,0.01,,,0.04,WUHU216HW,2013-03-06 20:25:00,
2013-03-06 12:30:00,44.1,41.1,29.62,North,0,2.9,3.6,89,0.00,,,0.04,WUHU216HW,2013-03-06 20:30:00,
2013-03-06 12:35:00,44.1,41.1,29.62,NNE,23,1.1,3.6,89,0.00,,,0.04,WUHU216HW,2013-03-06 20:35:00,
2013-03-06 12:40:00,43.9,41.0,29.62,NNE,23,3.4,3.4,89,0.00,,,0.04,WUHU216HW,2013-03-06 20:40:00,
2013-03-06 12:45:00,43.9,41.0,29.62,NE,45,0.4,4.5,89,0.00,,,0.04,WUHU216HW,2013-03-06 20:45:00,
2013-03-06 12:50:00,44.1,41.1,29.63,ENE,68,0.4,4.5,89,0.00,,,0.04,WUHU216HW,2013-03-06 20:50:00,
2013-03-06 12:55:00,44.1,41.1,29.63,West,270,2.9,3.4,89,0.00,,,0.04,WUHU216HW,2013-03-06 20:55:00,
2013-03-06 13:00:00,43.9,41.0,29.63,NNE,23,1.3,2.9,89,0.00,,,0.04,WUHU216HW,2013-03-06 21:00:00,
2013-03-06 13:05:00,43.9,41.0,29.63,NNE,23,0.4,3.6,89,0.00,,,0.04,WUHU216HW,2013-03-06 21:05:00,
2013-03-06 13:10:00,43.9,41.0,29.63,North,0,0.0,3.6,89,0.00,,,0.04,WUHU216HW,2013-03-06 21:10:00,
2013-03-06 13:15:00,43.7,40.8,29.63,NNW,338,1.6,1.8,89,0.00,,,0.04,WUHU216HW,2013-03-06 21:15:00,
2013-03-06 13:20:00,43.7,40.8,29.63,NNE,23,0.2,1.8,89,0.00,,,0.04,WUHU216HW,2013-03-06 21:20:00,
2013-03-06 13:25:00,43.7,40.8,29.63,North,0,0.7,2.5,89,0.00,,,0.04,WUHU216HW,2013-03-06 21:25:00,
2013-03-06 13:30:00,43.6,40.6,29.64,NW,315,0.0,2.5,89,0.00,,,0.04,WUHU216HW,2013-03-06 21:30:00,
2013-03-06 13:35:00,43.7,40.8,29.64,ENE,68,1.3,1.3,89,0.00,,,0.04,WUHU216HW,2013-03-06 21:35:00,
2013-03-06 13:40:00,43.6,40.6,29.64,NE,45,1.1,2.9,89,0.00,,,0.04,WUHU216HW,2013-03-06 21:40:00,
2013-03-06 13:45:00,43.6,40.6,29.64,NNE,23,2.5,2.9,89,0.01,,,0.05,WUHU216HW,2013-03-06 21:45:00,
2013-03-06 13:50:00,43.6,40.6,29.64,NNE,23,1.8,2.5,89,0.01,,,0.05,WUHU216HW,2013-03-06 21:50:00,
2013-03-06 13:54:00,43.6,40.6,29.65,ENE,68,0.9,1.8,89,0.01,,,0.05,WUHU216HW,2013-03-06 21:54:00,
2013-03-06 13:59:00,43.6,40.6,29.65,NE,45,0.9,1.3,89,0.01,,,0.05,WUHU216HW,2013-03-06 21:59:00,
2013-03-06 14:04:00,43.6,40.6,29.65,North,0,0.7,1.3,89,0.01,,,0.05,WUHU216HW,2013-03-06 22:04:00,
2013-03-06 14:09:00,43.6,40.9,29.65,NNE,23,0.0,1.8,90,0.01,,,0.05,WUHU216HW,2013-03-06 22:09:00,
2013-03-06 14:14:00,43.6,40.9,29.65,NNE,23,0.2,1.8,90,0.02,,,0.06,WUHU216HW,2013-03-06 22:14:00,
2013-03-06 14:19:00,43.7,41.0,29.66,North,0,0.7,0.9,90,0.02,,,0.06,WUHU216HW,2013-03-06 22:19:00,
2013-03-06 14:24:00,43.7,41.0,29.66,NNE,23,0.2,1.6,90,0.02,,,0.06,WUHU216HW,2013-03-06 22:24:00,
2013-03-06 14:29:00,43.9,41.2,29.66,North,0,0.2,1.6,90,0.02,,,0.06,WUHU216HW,2013-03-06 22:29:00,
2013-03-06 14:34:00,43.9,41.2,29.66,NE,45,0.0,0.9,90,0.02,,,0.06,WUHU216HW,2013-03-06 22:34:00,
2013-03-06 14:39:00,43.9,41.2,29.66,ENE,68,0.4,0.4,90,0.02,,,0.06,WUHU216HW,2013-03-06 22:39:00,
2013-03-06 14:44:00,44.1,41.4,29.67,East,90,0.4,0.4,90,0.01,,,0.06,WUHU216HW,2013-03-06 22:44:00,
2013-03-06 14:49:00,44.3,41.6,29.67,ENE,68,1.1,1.1,90,0.01,,,0.06,WUHU216HW,2013-03-06 22:49:00,
2013-03-06 14:54:00,44.3,41.6,29.67,ENE,68,0.2,1.1,90,0.01,,,0.06,WUHU216HW,2013-03-06 22:54:00,
2013-03-06 14:59:00,44.3,41.6,29.67,ENE,68,0.4,1.1,90,0.01,,,0.06,WUHU216HW,2013-03-06 22:59:00,
2013-03-06 15:04:00,44.3,41.6,29.67,NE,45,0.7,0.9,90,0.01,,,0.06,WUHU216HW,2013-03-06 23:04:00,
2013-03-06 15:09:00,44.5,41.8,29.67,NE,45,0.2,0.9,90,0.01,,,0.06,WUHU216HW,2013-03-06 23:09:00,
2013-03-06 15:14:00,44.6,41.9,29.68,NE,45,0.7,1.1,90,0.00,,,0.06,WUHU216HW,2013-03-06 23:14:00,
2013-03-06 15:19:00,44.6,42.2,29.68,East,90,0.4,1.1,91,0.00,,,0.06,WUHU216HW,2013-03-06 23:19:00,
2013-03-06 15:24:00,44.6,42.2,29.68,East,90,0.7,0.9,91,0.00,,,0.06,WUHU216HW,2013-03-06 23:24:00,
2013-03-06 15:29:00,44.6,42.2,29.68,East,90,0.4,0.7,91,0.00,,,0.06,WUHU216HW,2013-03-06 23:29:00,
2013-03-06 15:34:00,44.6,42.2,29.68,East,90,0.4,0.7,91,0.00,,,0.06,WUHU216HW,2013-03-06 23:34:00,
2013-03-06 15:39:00,44.6,42.2,29.69,ENE,68,0.4,1.1,91,0.00,,,0.06,WUHU216HW,2013-03-06 23:39:00,
2013-03-06 15:44:00,44.6,41.9,29.69,ENE,68,0.4,1.1,90,0.00,,,0.06,WUHU216HW,2013-03-06 23:44:00,
2013-03-06 15:49:00,44.5,41.8,29.69,ENE,68,0.0,0.9,90,0.02,,,0.08,WUHU216HW,2013-03-06 23:49:00,
2013-03-06 15:54:00,44.5,41.8,29.69,ENE,68,0.2,0.9,90,0.02,,,0.08,WUHU216HW,2013-03-06 23:54:00,
2013-03-06 15:59:00,44.5,41.8,29.69,ESE,113,0.2,0.7,90,0.02,,,0.08,WUHU216HW,2013-03-06 23:59:00,
2013-03-06 16:04:00,44.3,41.6,29.69,ESE,113,0.2,0.7,90,0.02,,,0.08,WUHU216HW,2013-03-07 00:04:00,
2013-03-06 16:09:00,44.3,41.6,29.70,ENE,68,0.4,0.9,90,0.02,,,0.08,WUHU216HW,2013-03-07 00:09:00,
2013-03-06 16:14:00,44.3,41.6,29.70,ENE,68,0.4,0.9,90,0.02,,,0.08,WUHU216HW,2013-03-07 00:14:00,
2013-03-06 16:19:00,44.1,41.4,29.70,ENE,68,0.0,0.4,90,0.02,,,0.08,WUHU216HW,2013-03-07 00:19:00,
2013-03-06 16:24:00,44.1,41.4,29.70,ENE,68,0.0,0.4,90,0.02,,,0.08,WUHU216HW,2013-03-07 00:24:00,
2013-03-06 16:29:00,43.9,41.2,29.71,ENE,68,0.0,0.2,90,0.02,,,0.08,WUHU216HW,2013-03-07 00:29:00,
2013-03-06 16:34:00,43.9,41.2,29.71,ENE,68,0.0,0.4,90,0.02,,,0.08,WUHU216HW,2013-03-07 00:34:00,
2013-03-06 16:39:00,43.6,40.9,29.71,NE,45,0.2,1.1,90,0.02,,,0.08,WUHU216HW,2013-03-07 00:39:00,
2013-03-06 16:44:00,43.6,40.9,29.71,East,90,0.0,1.1,90,0.04,,,0.10,WUHU216HW,2013-03-07 00:44:00,
2013-03-06 16:49:00,43.4,40.7,29.71,East,90,0.0,0.4,90,0.02,,,0.10,WUHU216HW,2013-03-07 00:49:00,
2013-03-06 16:54:00,43.2,40.5,29.71,East,90,0.2,0.4,90,0.02,,,0.10,WUHU216HW,2013-03-07 00:54:00,
2013-03-06 16:59:00,43.2,40.5,29.71,East,90,0.0,0.4,90,0.02,,,0.10,WUHU216HW,2013-03-07 00:59:00,
2013-03-06 17:04:00,43.0,40.3,29.71,ESE,113,0.0,0.2,90,0.02,,,0.10,WUHU216HW,2013-03-07 01:04:00,
2013-03-06 17:09:00,42.8,40.1,29.71,ESE,113,0.0,0.0,90,0.04,,,0.12,WUHU216HW,2013-03-07 01:09:00,
2013-03-06 17:14:00,42.8,40.1,29.71,ESE,113,0.0,0.0,90,0.04,,,0.12,WUHU216HW,2013-03-07 01:14:00,
2013-03-06 17:19:00,42.8,40.1,29.72,WSW,248,0.9,0.9,90,0.04,,,0.12,WUHU216HW,2013-03-07 01:19:00,
2013-03-06 17:24:00,42.7,40.0,29.72,WSW,248,0.2,2.0,90,0.04,,,0.12,WUHU216HW,2013-03-07 01:24:00,
2013-03-06 17:29:00,42.7,40.0,29.72,SSE,158,0.2,2.0,90,0.06,,,0.14,WUHU216HW,2013-03-07 01:29:00,
2013-03-06 17:35:00,42.7,40.0,29.72,SW,225,0.2,1.1,90,0.06,,,0.14,WUHU216HW,2013-03-07 01:35:00,
2013-03-06 17:40:00,42.5,39.8,29.72,SW,225,0.2,1.1,90,0.06,,,0.14,WUHU216HW,2013-03-07 01:40:00,
2013-03-06 17:45:00,42.5,39.8,29.73,SSW,203,0.2,1.1,90,0.04,,,0.14,WUHU216HW,2013-03-07 01:45:00,
2013-03-06 17:50:00,42.5,39.8,29.73,SSW,203,0.0,0.7,90,0.05,,,0.15,WUHU216HW,2013-03-07 01:50:00,
2013-03-06 17:55:00,42.5,39.8,29.73,SSE,158,0.0,0.9,90,0.05,,,0.15,WUHU216HW,2013-03-07 01:55:00,
2013-03-06 18:00:00,42.5,39.8,29.73,SSE,158,0.0,0.9,90,0.05,,,0.15,WUHU216HW,2013-03-07 02:00:00,
2013-03-06 18:05:00,42.3,39.6,29.73,SW,225,0.4,0.4,90,0.05,,,0.15,WUHU216HW,2013-03-07 02:05:00,
2013-03-06 18:10:00,42.3,39.6,29.73,SSE,158,0.2,0.7,90,0.03,,,0.15,WUHU216HW,2013-03-07 02:10:00,
2013-03-06 18:15:00,42.3,39.9,29.74,South,180,0.4,1.1,91,0.04,,,0.16,WUHU216HW,2013-03-07 02:15:00,
2013-03-06 18:20:00,42.3,39.9,29.73,WSW,248,0.0,1.3,91,0.04,,,0.16,WUHU216HW,2013-03-07 02:20:00,
2013-03-06 18:25:00,42.3,39.9,29.74,SSE,158,0.0,1.3,91,0.02,,,0.16,WUHU216HW,2013-03-07 02:25:00,
2013-03-06 18:29:00,42.1,39.7,29.74,WSW,248,0.4,3.8,91,0.03,,,0.17,WUHU216HW,2013-03-07 02:29:00,
2013-03-06 18:35:00,42.1,39.7,29.74,SSW,203,0.4,3.8,91,0.03,,,0.17,WUHU216HW,2013-03-07 02:35:00,
2013-03-06 18:40:00,42.1,39.7,29.74,SSW,203,2.7,2.7,91,0.03,,,0.17,WUHU216HW,2013-03-07 02:40:00,
2013-03-06 18:44:00,42.1,39.7,29.75,SE,135,0.4,2.7,91,0.05,,,0.19,WUHU216HW,2013-03-07 02:44:00,
2013-03-06 18:49:00,42.1,39.7,29.75,WSW,248,1.8,2.7,91,0.04,,,0.19,WUHU216HW,2013-03-07 02:49:00,
2013-03-06 18:54:00,42.1,39.7,29.76,SSW,203,4.0,4.0,91,0.06,,,0.21,WUHU216HW,2013-03-07 02:54:00,
2013-03-06 18:59:00,42.1,39.7,29.76,WNW,293,0.2,4.0,91,0.06,,,0.21,WUHU216HW,2013-03-07 02:59:00,
2013-03-06 19:05:00,42.1,39.7,29.76,SSW,203,0.7,4.0,91,0.07,,,0.22,WUHU216HW,2013-03-07 03:05:00,
2013-03-06 19:10:00,42.1,39.7,29.76,SE,135,1.1,4.0,91,0.08,,,0.23,WUHU216HW,2013-03-07 03:10:00,
2013-03-06 19:14:00,42.1,39.7,29.76,South,180,2.2,4.0,91,0.08,,,0.24,WUHU216HW,2013-03-07 03:14:00,
2013-03-06 19:20:00,42.1,39.7,29.76,SSE,158,0.4,2.9,91,0.08,,,0.24,WUHU216HW,2013-03-07 03:20:00,
2013-03-06 19:25:00,42.1,39.7,29.77,WSW,248,3.8,4.0,91,0.09,,,0.25,WUHU216HW,2013-03-07 03:25:00,
2013-03-06 19:30:00,41.9,39.5,29.77,SW,225,0.7,5.1,91,0.08,,,0.25,WUHU216HW,2013-03-07 03:30:00,
2013-03-06 19:34:00,41.9,39.5,29.77,SSW,203,0.7,5.1,91,0.08,,,0.25,WUHU216HW,2013-03-07 03:34:00,
2013-03-06 19:40:00,41.9,39.8,29.78,SE,135,4.0,4.0,92,0.09,,,0.26,WUHU216HW,2013-03-07 03:40:00,
2013-03-06 19:45:00,41.9,39.8,29.78,SSW,203,0.7,4.0,92,0.07,,,0.26,WUHU216HW,2013-03-07 03:45:00,
2013-03-06 19:50:00,41.8,39.6,29.78,SE,135,0.7,4.0,92,0.08,,,0.27,WUHU216HW,2013-03-07 03:50:00,
2013-03-06 19:55:00,41.8,39.6,29.78,WSW,248,0.2,3.4,92,0.06,,,0.27,WUHU216HW,2013-03-07 03:55:00,
2013-03-06 20:00:00,41.8,39.6,29.79,SW,225,6.5,6.5,92,0.06,,,0.27,WUHU216HW,2013-03-07 04:00:00,
2013-03-06 20:05:00,41.6,39.4,29.79,SW,225,1.8,6.5,92,0.06,,,0.28,WUHU216HW,2013-03-07 04:05:00,
2013-03-06 20:10:00,41.4,39.2,29.79,South,180,0.9,6.5,92,0.05,,,0.28,WUHU216HW,2013-03-07 04:10:00,
2013-03-06 20:15:00,41.4,39.2,29.79,SW,225,1.3,5.4,92,0.04,,,0.28,WUHU216HW,2013-03-07 04:15:00,
2013-03-06 20:20:00,41.4,39.2,29.79,SSW,203,3.4,5.4,92,0.04,,,0.28,WUHU216HW,2013-03-07 04:20:00,
2013-03-06 20:25:00,41.2,39.1,29.80,SSE,158,0.7,4.5,92,0.03,,,0.28,WUHU216HW,2013-03-07 04:25:00,
2013-03-06 20:30:00,41.0,38.9,29.80,SSE,158,2.5,4.5,92,0.04,,,0.29,WUHU216HW,2013-03-07 04:30:00,
2013-03-06 20:35:00,41.0,38.9,29.80,SW,225,1.1,5.6,92,0.04,,,0.29,WUHU216HW,2013-03-07 04:35:00,
2013-03-06 20:40:00,41.0,38.9,29.80,SW,225,3.6,5.6,92,0.03,,,0.29,WUHU216HW,2013-03-07 04:40:00,
2013-03-06 20:45:00,40.9,38.7,29.80,WSW,248,3.4,5.8,92,0.03,,,0.29,WUHU216HW,2013-03-07 04:45:00,
2013-03-06 20:50:00,40.7,38.5,29.81,WSW,248,4.3,5.8,92,0.02,,,0.29,WUHU216HW,2013-03-07 04:50:00,
2013-03-06 20:55:00,40.7,38.5,29.81,South,180,0.4,5.4,92,0.02,,,0.29,WUHU216HW,2013-03-07 04:55:00,
2013-03-06 21:00:00,40.7,38.5,29.81,WSW,248,0.9,5.4,92,0.02,,,0.29,WUHU216HW,2013-03-07 05:00:00,
2013-03-06 21:01:00,40.7,38.5,29.81,ESE,113,0.9,4.7,92,0.02,,,0.29,WUHU216HW,2013-03-07 05:01:00,
2013-03-06 21:06:00,40.7,38.5,29.81,SE,135,0.7,4.7,92,0.01,,,0.29,WUHU216HW,2013-03-07 05:06:00,
2013-03-06 21:11:00,40.5,38.3,29.81,South,180,0.9,3.4,92,0.02,,,0.30,WUHU216HW,2013-03-07 05:11:00,
2013-03-06 21:16:00,40.5,38.3,29.81,WSW,248,2.2,4.0,92,0.02,,,0.30,WUHU216HW,2013-03-07 05:16:00,
2013-03-06 21:21:00,40.5,38.3,29.81,WSW,248,1.8,4.0,92,0.02,,,0.30,WUHU216HW,2013-03-07 05:21:00,
2013-03-06 21:26:00,40.5,38.3,29.81,WSW,248,5.4,5.4,92,0.02,,,0.30,WUHU216HW,2013-03-07 05:26:00,
2013-03-06 21:31:00,40.5,38.3,29.82,SW,225,1.8,5.4,92,0.01,,,0.30,WUHU216HW,2013-03-07 05:31:00,
2013-03-06 21:36:00,40.3,38.2,29.82,SW,225,1.1,5.4,92,0.01,,,0.30,WUHU216HW,2013-03-07 05:36:00,
2013-03-06 21:41:00,40.3,38.2,29.82,SW,225,1.3,5.1,92,0.01,,,0.30,WUHU216HW,2013-03-07 05:41:00,
2013-03-06 21:46:00,40.3,38.2,29.82,WSW,248,2.7,4.0,92,0.01,,,0.30,WUHU216HW,2013-03-07 05:46:00,
2013-03-06 21:51:00,40.3,38.2,29.82,SW,225,2.7,4.0,92,0.01,,,0.30,WUHU216HW,2013-03-07 05:51:00,
2013-03-06 21:56:00,40.1,38.3,29.83,SW,225,2.7,5.1,93,0.01,,,0.30,WUHU216HW,2013-03-07 05:56:00,
2013-03-06 22:01:00,40.1,38.3,29.83,SSE,158,0.4,5.1,93,0.02,,,0.31,WUHU216HW,2013-03-07 06:01:00,
2013-03-06 22:06:00,40.1,38.3,29.83,SSW,203,1.8,3.4,93,0.02,,,0.31,WUHU216HW,2013-03-07 06:06:00,
2013-03-06 22:11:00,40.1,38.3,29.84,WSW,248,1.8,2.7,93,0.01,,,0.31,WUHU216HW,2013-03-07 06:11:00,
2013-03-06 22:16:00,40.1,38.3,29.84,SSW,203,3.1,3.1,93,0.01,,,0.31,WUHU216HW,2013-03-07 06:16:00,
2013-03-06 22:21:00,40.1,38.3,29.84,SW,225,2.5,3.1,93,0.01,,,0.31,WUHU216HW,2013-03-07 06:21:00,
2013-03-06 22:26:00,40.3,38.4,29.84,WSW,248,1.3,3.1,93,0.01,,,0.31,WUHU216HW,2013-03-07 06:26:00,
2013-03-06 22:31:00,40.3,38.4,29.84,SW,225,0.4,2.5,93,0.01,,,0.31,WUHU216HW,2013-03-07 06:31:00,
2013-03-06 22:36:00,40.1,38.3,29.84,South,180,1.3,2.2,93,0.01,,,0.31,WUHU216HW,2013-03-07 06:36:00,
2013-03-06 22:41:00,40.3,38.4,29.84,SSW,203,2.0,4.5,93,0.01,,,0.31,WUHU216HW,2013-03-07 06:41:00,
2013-03-06 22:46:00,40.3,38.4,29.84,SW,225,0.4,4.5,93,0.02,,,0.32,WUHU216HW,2013-03-07 06:46:00,
2013-03-06 22:51:00,40.3,38.4,29.84,SW,225,0.9,3.4,93,0.02,,,0.32,WUHU216HW,2013-03-07 06:51:00,
2013-03-06 22:56:00,40.3,38.4,29.84,SW,225,1.1,2.0,93,0.02,,,0.32,WUHU216HW,2013-03-07 06:56:00,
2013-03-06 23:01:00,40.3,38.4,29.85,SW,225,0.4,3.4,93,0.01,,,0.32,WUHU216HW,2013-03-07 07:01:00,
2013-03-06 23:06:00,40.3,38.4,29.85,South,180,0.2,3.4,93,0.01,,,0.32,WUHU216HW,2013-03-07 07:06:00,
2013-03-06 23:11:00,40.3,38.4,29.85,SSE,158,0.7,3.8,93,0.01,,,0.32,WUHU216HW,2013-03-07 07:11:00,
2013-03-06 23:16:00,40.5,38.6,29.85,SSW,203,0.7,3.8,93,0.01,,,0.32,WUHU216HW,2013-03-07 07:16:00,
2013-03-06 23:21:00,40.5,38.6,29.85,SE,135,1.1,2.5,93,0.01,,,0.32,WUHU216HW,2013-03-07 07:21:00,
2013-03-06 23:26:00,40.5,38.6,29.85,SW,225,1.1,3.4,93,0.01,,,0.32,WUHU216HW,2013-03-07 07:26:00,
2013-03-06 23:31:00,40.5,38.6,29.86,SSE,158,1.6,3.4,93,0.01,,,0.32,WUHU216HW,2013-03-07 07:31:00,
2013-03-06 23:36:00,40.5,38.6,29.86,SW,225,0.7,2.5,93,0.01,,,0.32,WUHU216HW,2013-03-07 07:36:00,
2013-03-06 23:41:00,40.5,38.6,29.86,WSW,248,1.6,2.5,93,0.01,,,0.32,WUHU216HW,2013-03-07 07:41:00,
2013-03-06 23:46:00,40.5,38.6,29.86,West,270,2.5,3.4,93,0.00,,,0.32,WUHU216HW,2013-03-07 07:46:00,
2013-03-06 23:51:00,40.5,38.6,29.86,SSE,158,0.9,3.4,93,0.00,,,0.32,WUHU216HW,2013-03-07 07:51:00,
2013-03-06 23:56:00,40.7,38.8,29.86,WSW,248,0.7,2.5,93,0.00,,,0.32,WUHU216HW,2013-03-07 07:56:00,